createdAt,value
2018-07-08T00:01:08.393Z,16.20
2018-07-08T00:03:36.689Z,16.60
2018-07-08T00:06:04.811Z,15.50
2018-07-08T00:08:32.951Z,14.90
2018-07-08T00:11:01.143Z,16.10
2018-07-08T00:13:29.253Z,16.60
2018-07-08T00:15:57.343Z,15.70
2018-07-08T00:18:25.601Z,16.10
2018-07-08T00:20:54.822Z,16.60
2018-07-08T00:23:24.054Z,16.10
2018-07-08T00:25:52.227Z,15.40
2018-07-08T00:28:20.617Z,16.00
2018-07-08T00:30:49.096Z,14.80
2018-07-08T00:33:17.188Z,15.70
2018-07-08T00:35:45.299Z,16.00
2018-07-08T00:38:13.421Z,17.00
2018-07-08T00:40:41.526Z,16.50
2018-07-08T00:43:09.814Z,16.60
2018-07-08T00:45:37.922Z,16.50
2018-07-08T00:48:06.077Z,15.80
2018-07-08T00:50:34.161Z,16.80
2018-07-08T00:53:02.278Z,16.30
2018-07-08T00:55:30.401Z,16.80
2018-07-08T00:57:58.549Z,16.10
2018-07-08T01:00:34.111Z,16.00
2018-07-08T01:03:03.767Z,15.80
2018-07-08T01:05:31.985Z,17.10
2018-07-08T01:08:00.883Z,16.40
2018-07-08T01:10:29.265Z,17.10
2018-07-08T01:12:57.989Z,17.00
2018-07-08T01:15:26.210Z,16.90
2018-07-08T01:17:54.307Z,17.70
2018-07-08T01:20:22.890Z,18.40
2018-07-08T01:22:51.873Z,17.20
2018-07-08T01:26:24.644Z,16.80
2018-07-08T01:28:52.809Z,18.50
2018-07-08T01:31:20.896Z,16.80
2018-07-08T01:33:48.984Z,17.90
2018-07-08T01:38:45.035Z,17.20
2018-07-08T01:41:12.525Z,17.50
2018-07-08T01:43:40.607Z,18.20
2018-07-08T01:46:08.704Z,18.50
2018-07-08T01:48:36.830Z,17.80
2018-07-08T01:51:04.312Z,17.40
2018-07-08T01:53:31.762Z,18.10
2018-07-08T01:55:59.354Z,18.50
2018-07-08T01:58:26.778Z,18.80
2018-07-08T02:00:54.236Z,19.00
2018-07-08T02:03:21.732Z,18.50
2018-07-08T02:05:49.157Z,19.00
2018-07-08T02:08:16.636Z,19.00
2018-07-08T02:10:44.060Z,19.00
2018-07-08T02:13:11.517Z,19.00
2018-07-08T02:15:38.970Z,18.90
2018-07-08T02:18:06.412Z,18.90
2018-07-08T02:20:33.833Z,18.80
2018-07-08T02:23:01.337Z,18.90
2018-07-08T02:25:28.765Z,19.20
2018-07-08T02:27:56.220Z,19.50
2018-07-08T02:30:24.390Z,19.80
2018-07-08T02:32:52.646Z,19.10
2018-07-08T02:35:20.755Z,18.80
2018-07-08T02:37:48.886Z,19.50
2018-07-08T02:40:16.990Z,18.80
2018-07-08T02:42:45.123Z,19.20
2018-07-08T02:45:13.369Z,18.80
2018-07-08T02:47:41.529Z,18.60
2018-07-08T02:50:09.641Z,18.70
2018-07-08T02:57:33.522Z,19.60
2018-07-08T03:00:01.678Z,19.50
2018-07-08T03:02:29.858Z,20.20
2018-07-08T03:04:57.416Z,19.40
2018-07-08T03:07:24.844Z,19.90
2018-07-08T03:09:53.135Z,19.80
2018-07-08T03:12:21.247Z,19.60
2018-07-08T03:14:49.338Z,19.90
2018-07-08T03:17:17.471Z,20.80
2018-07-08T03:19:44.926Z,20.50
2018-07-08T03:22:12.436Z,20.30
2018-07-08T03:24:39.870Z,20.80
2018-07-08T03:27:07.291Z,20.40
2018-07-08T03:29:35.476Z,20.80
2018-07-08T03:32:03.634Z,20.30
2018-07-08T03:34:31.721Z,20.40
2018-07-08T03:36:59.885Z,20.90
2018-07-08T03:39:27.364Z,20.30
2018-07-08T03:46:51.461Z,19.30
2018-07-08T03:49:19.557Z,20.00
2018-07-08T03:51:47.675Z,20.40
2018-07-08T03:54:25.007Z,21.40
2018-07-08T03:56:53.163Z,20.50
2018-07-08T03:59:21.445Z,20.70
2018-07-08T04:01:49.555Z,21.90
2018-07-08T04:04:18.289Z,21.10
2018-07-08T04:06:46.765Z,21.60
2018-07-08T04:09:15.033Z,21.20
2018-07-08T04:11:43.171Z,21.20
2018-07-08T04:14:11.270Z,21.20
2018-07-08T04:16:39.403Z,21.10
2018-07-08T04:19:07.509Z,21.30
2018-07-08T04:21:35.692Z,21.20
2018-07-08T04:24:03.826Z,21.60
2018-07-08T04:26:31.958Z,21.60
2018-07-08T04:29:00.111Z,21.40
2018-07-08T04:31:28.189Z,21.90
2018-07-08T04:33:56.287Z,21.80
2018-07-08T04:36:24.386Z,20.90
2018-07-08T04:38:52.745Z,21.50
2018-07-08T04:43:48.830Z,21.20
2018-07-08T04:46:16.950Z,21.50
2018-07-08T04:48:45.068Z,21.70
2018-07-08T04:51:13.177Z,21.90
2018-07-08T04:53:41.267Z,21.60
2018-07-08T04:56:09.397Z,21.60
2018-07-08T04:58:37.718Z,22.10
2018-07-08T05:01:05.897Z,21.10
2018-07-08T05:03:34.051Z,21.60
2018-07-08T05:06:02.530Z,21.40
2018-07-08T05:08:30.680Z,21.60
2018-07-08T05:10:58.886Z,20.90
2018-07-08T05:13:27.017Z,21.10
2018-07-08T05:15:55.102Z,20.60
2018-07-08T05:18:23.213Z,20.90
2018-07-08T05:20:51.360Z,21.00
2018-07-08T05:23:19.429Z,21.40
2018-07-08T05:25:47.529Z,21.10
2018-07-08T05:28:15.638Z,21.00
2018-07-08T05:30:43.862Z,20.70
2018-07-08T05:33:11.959Z,20.10
2018-07-08T05:35:40.125Z,20.40
2018-07-08T05:38:08.415Z,20.00
2018-07-08T05:40:36.535Z,20.60
2018-07-08T05:43:04.628Z,19.70
2018-07-08T05:45:32.730Z,19.40
2018-07-08T05:48:00.874Z,19.70
2018-07-08T05:50:29.365Z,19.20
2018-07-08T05:52:57.472Z,20.30
2018-07-08T05:55:25.565Z,20.50
2018-07-08T05:57:54.604Z,19.00
2018-07-08T06:00:22.698Z,19.80
2018-07-08T06:02:51.162Z,20.20
2018-07-08T06:05:19.281Z,19.00
2018-07-08T06:07:47.379Z,19.50
2018-07-08T06:10:15.482Z,19.20
2018-07-08T06:12:43.581Z,18.30
2018-07-08T06:15:11.896Z,19.20
2018-07-08T06:17:40.021Z,18.30
2018-07-08T06:20:09.218Z,17.80
2018-07-08T06:22:37.376Z,17.70
2018-07-08T06:25:05.641Z,16.70
2018-07-08T06:30:01.600Z,17.00
2018-07-08T06:32:29.700Z,17.00
2018-07-08T06:34:57.821Z,17.60
2018-07-08T06:37:25.938Z,17.50
2018-07-08T06:39:54.063Z,17.60
2018-07-08T06:42:22.451Z,17.00
2018-07-08T06:44:50.557Z,15.90
2018-07-08T06:47:18.831Z,15.60
2018-07-08T06:49:46.948Z,15.70
2018-07-08T06:52:15.077Z,16.60
2018-07-08T06:54:43.242Z,16.60
2018-07-08T06:57:11.345Z,16.90
2018-07-08T06:59:39.438Z,16.90
2018-07-08T07:02:07.717Z,15.80
2018-07-08T07:04:35.798Z,15.90
2018-07-08T07:07:04.090Z,15.90
2018-07-08T07:09:32.214Z,15.50
2018-07-08T07:12:00.385Z,15.10
2018-07-08T07:14:29.450Z,15.10
2018-07-08T07:16:57.587Z,14.80
2018-07-08T07:19:25.881Z,14.90
2018-07-08T07:21:54.266Z,15.10
2018-07-08T07:24:22.397Z,14.70
2018-07-08T07:26:50.531Z,14.80
2018-07-08T07:29:18.641Z,15.00
2018-07-08T07:31:46.774Z,14.80
2018-07-08T07:34:14.866Z,14.60
2018-07-08T07:36:42.979Z,14.30
2018-07-08T07:39:11.091Z,14.10
2018-07-08T07:41:39.202Z,14.00
2018-07-08T07:46:35.197Z,13.50
2018-07-08T07:49:03.285Z,13.40
2018-07-08T07:51:31.380Z,12.80
2018-07-08T07:53:59.481Z,12.50
2018-07-08T07:56:27.587Z,12.60
2018-07-08T07:58:55.707Z,12.20
2018-07-08T08:01:23.806Z,12.10
2018-07-08T08:03:51.901Z,11.90
2018-07-08T08:06:20.181Z,11.80
2018-07-08T08:08:48.256Z,11.60
2018-07-08T08:11:16.363Z,12.30
2018-07-08T08:14:04.144Z,11.90
2018-07-08T08:16:32.249Z,11.50
2018-07-08T08:19:01.402Z,10.70
2018-07-08T08:21:29.493Z,10.40
2018-07-08T08:23:58.271Z,10.30
2018-07-08T08:26:27.016Z,11.20
2018-07-08T08:28:55.131Z,10.60
2018-07-08T08:31:23.221Z,10.80
2018-07-08T08:35:07.764Z,10.30
2018-07-08T08:37:51.554Z,10.10
2018-07-08T08:40:20.917Z,11.70
2018-07-08T08:42:49.010Z,12.40
2018-07-08T08:45:18.272Z,12.70
2018-07-08T08:47:46.381Z,12.30
2018-07-08T08:52:42.914Z,11.00
2018-07-08T08:55:11.775Z,11.00
2018-07-08T08:57:41.111Z,10.70
2018-07-08T09:00:14.184Z,10.40
2018-07-08T09:02:42.313Z,10.50
2018-07-08T09:05:10.623Z,10.60
2018-07-08T09:07:38.913Z,11.10
2018-07-08T09:10:07.338Z,11.30
2018-07-08T09:12:35.559Z,11.60
2018-07-08T09:15:03.783Z,12.20
2018-07-08T09:17:32.099Z,12.50
2018-07-08T09:20:00.185Z,11.90
2018-07-08T09:22:28.273Z,11.00
2018-07-08T09:24:56.385Z,11.50
2018-07-08T09:27:24.500Z,11.80
2018-07-08T09:29:52.598Z,10.00
2018-07-08T09:32:20.731Z,9.50
2018-07-08T09:34:48.830Z,10.10
2018-07-08T09:37:16.949Z,10.00
2018-07-08T09:39:45.062Z,10.20
2018-07-08T09:42:13.439Z,10.90
2018-07-08T09:44:41.580Z,12.10
2018-07-08T09:47:09.672Z,12.10
2018-07-08T09:49:37.775Z,11.50
2018-07-08T09:52:06.335Z,10.70
2018-07-08T09:54:34.451Z,10.60
2018-07-08T09:57:02.530Z,10.90
2018-07-08T09:59:30.625Z,10.80
2018-07-08T10:01:58.715Z,10.50
2018-07-08T10:04:28.068Z,10.50
2018-07-08T10:06:56.136Z,8.20
2018-07-08T10:09:24.913Z,7.50
2018-07-08T10:11:53.065Z,7.00
2018-07-08T10:16:50.481Z,6.60
2018-07-08T10:19:19.470Z,6.60
2018-07-08T10:21:47.565Z,6.20
2018-07-08T10:24:15.694Z,6.50
2018-07-08T10:26:43.837Z,6.40
2018-07-08T10:29:14.701Z,5.60
2018-07-08T10:31:51.567Z,4.70
2018-07-08T10:34:19.893Z,5.30
2018-07-08T10:36:48.001Z,4.60
2018-07-08T10:39:16.753Z,2.70
2018-07-08T10:41:44.877Z,2.70
2018-07-08T10:44:13.204Z,2.50
2018-07-08T10:46:41.901Z,2.20
2018-07-08T10:49:10.265Z,1.10
2018-07-08T10:51:38.364Z,1.00
2018-07-08T10:54:06.802Z,1.00
2018-07-08T10:56:34.914Z,1.00
2018-07-08T10:59:03.005Z,1.00
2018-07-08T11:01:31.329Z,1.00
2018-07-08T11:03:59.448Z,1.00
2018-07-08T11:08:55.494Z,1.00
2018-07-08T11:11:23.581Z,1.00
2018-07-08T11:13:51.836Z,1.00
2018-07-08T11:16:19.938Z,1.00
2018-07-08T11:18:48.352Z,1.00
2018-07-08T11:21:16.473Z,1.00
2018-07-08T11:23:44.929Z,1.00
2018-07-08T11:26:13.049Z,1.00
2018-07-08T11:28:41.292Z,1.00
2018-07-08T11:31:09.499Z,1.00
2018-07-08T11:33:37.806Z,1.00
2018-07-08T11:36:06.053Z,1.00
2018-07-08T11:38:34.162Z,1.00
2018-07-08T11:41:02.286Z,1.00
2018-07-08T11:43:30.405Z,1.00
2018-07-08T11:45:58.760Z,1.00
2018-07-08T11:48:26.857Z,1.00
2018-07-08T11:50:54.992Z,1.00
2018-07-08T11:53:23.100Z,1.00
2018-07-08T11:55:51.193Z,1.00
2018-07-08T11:58:19.434Z,1.00
2018-07-08T12:00:47.550Z,1.00
2018-07-08T12:03:15.658Z,1.00
2018-07-08T12:05:43.775Z,1.00
2018-07-08T12:08:12.181Z,1.00
2018-07-08T12:10:40.410Z,1.00
2018-07-08T12:13:08.769Z,1.00
2018-07-08T12:15:36.917Z,1.00
2018-07-08T12:18:05.016Z,1.00
2018-07-08T12:20:37.562Z,1.00
2018-07-08T12:23:05.692Z,1.00
2018-07-08T12:25:35.330Z,1.00
2018-07-08T12:28:03.453Z,1.00
2018-07-08T12:30:31.598Z,1.00
2018-07-08T12:32:59.860Z,1.00
2018-07-08T12:37:56.798Z,1.00
2018-07-08T12:40:24.913Z,1.00
2018-07-08T12:42:53.026Z,1.00
2018-07-08T12:45:21.168Z,1.00
2018-07-08T12:47:49.293Z,1.00
2018-07-08T12:50:18.372Z,1.00
2018-07-08T12:52:46.497Z,1.00
2018-07-08T12:55:14.613Z,1.00
2018-07-08T12:57:42.743Z,1.00
2018-07-08T13:00:10.905Z,1.00
2018-07-08T13:02:39.013Z,1.00
2018-07-08T13:05:07.238Z,1.00
2018-07-08T13:07:35.525Z,1.00
2018-07-08T13:10:03.643Z,1.00
2018-07-08T13:12:31.763Z,1.00
2018-07-08T13:14:59.878Z,1.00
2018-07-08T13:17:28.008Z,1.00
2018-07-08T13:19:56.130Z,1.00
2018-07-08T13:22:24.344Z,1.00
2018-07-08T13:24:52.841Z,1.00
2018-07-08T13:27:21.919Z,1.00
2018-07-08T13:29:50.013Z,1.00
2018-07-08T13:32:18.213Z,1.00
2018-07-08T13:34:46.185Z,1.00
2018-07-08T13:37:14.288Z,1.00
2018-07-08T13:39:42.723Z,1.00
2018-07-08T13:42:11.026Z,1.00
2018-07-08T13:44:39.128Z,1.00
2018-07-08T13:47:07.221Z,1.00
2018-07-08T13:49:35.311Z,1.00
2018-07-08T13:52:03.409Z,1.00
2018-07-08T13:54:31.516Z,1.00
2018-07-08T13:56:59.643Z,1.00
2018-07-08T13:59:27.743Z,1.00
2018-07-08T14:01:55.922Z,1.00
2018-07-08T14:04:24.140Z,1.00
2018-07-08T14:06:52.219Z,1.00
2018-07-08T14:09:20.365Z,1.00
2018-07-08T14:11:48.458Z,1.00
2018-07-08T14:14:16.574Z,1.00
2018-07-08T14:16:45.011Z,1.00
2018-07-08T14:19:13.277Z,1.00
2018-07-08T14:21:41.378Z,1.00
2018-07-08T14:26:37.506Z,1.00
2018-07-08T14:29:05.857Z,1.00
2018-07-08T14:31:33.986Z,1.00
2018-07-08T14:36:30.396Z,1.00
2018-07-08T14:38:58.543Z,1.00
2018-07-08T14:41:27.701Z,1.00
2018-07-08T14:43:55.817Z,1.00
2018-07-08T14:46:23.954Z,1.00
2018-07-08T14:48:52.110Z,1.00
2018-07-08T14:51:20.461Z,1.00
2018-07-08T14:53:48.584Z,1.00
2018-07-08T14:56:16.722Z,1.00
2018-07-08T14:58:44.866Z,1.00
2018-07-08T15:01:13.005Z,1.00
2018-07-08T15:03:41.178Z,1.00
2018-07-08T15:06:09.344Z,1.00
2018-07-08T15:08:37.691Z,1.00
2018-07-08T15:11:06.091Z,1.00
2018-07-08T15:13:34.179Z,1.00
2018-07-08T15:16:02.578Z,1.00
2018-07-08T15:18:30.641Z,1.00
2018-07-08T15:20:58.757Z,1.00
2018-07-08T15:23:26.821Z,1.00
2018-07-08T15:25:54.916Z,1.00
2018-07-08T15:28:23.059Z,1.00
2018-07-08T15:30:51.199Z,1.00
2018-07-08T15:33:19.284Z,1.00
2018-07-08T15:35:47.461Z,1.00
2018-07-08T15:38:16.071Z,1.00
2018-07-08T15:40:44.233Z,1.00
2018-07-08T15:43:12.520Z,1.00
2018-07-08T15:45:40.627Z,1.00
2018-07-08T15:48:08.750Z,1.00
2018-07-08T15:50:36.848Z,1.00
2018-07-08T15:53:05.221Z,1.00
2018-07-08T15:58:01.439Z,1.00
2018-07-08T16:00:30.142Z,1.00
2018-07-08T16:02:58.236Z,1.00
2018-07-08T16:05:26.344Z,1.00
2018-07-08T16:07:54.505Z,1.00
2018-07-08T16:10:22.616Z,1.00
2018-07-08T16:12:50.753Z,1.00
2018-07-08T16:15:18.872Z,1.00
2018-07-08T16:17:46.980Z,1.00
2018-07-08T16:20:15.065Z,1.00
2018-07-08T16:22:43.224Z,1.00
2018-07-08T16:25:11.352Z,1.00
2018-07-08T16:27:39.465Z,1.00
2018-07-08T16:30:07.829Z,1.00
2018-07-08T16:32:35.985Z,1.00
2018-07-08T16:35:04.298Z,1.00
2018-07-08T16:37:32.513Z,1.00
2018-07-08T16:40:00.629Z,1.00
2018-07-08T16:42:28.745Z,1.00
2018-07-08T16:44:56.826Z,1.00
2018-07-08T16:47:24.918Z,1.00
2018-07-08T16:52:22.253Z,1.00
2018-07-08T16:54:50.705Z,1.00
2018-07-08T16:57:19.057Z,1.00
2018-07-08T16:59:47.173Z,1.00
2018-07-08T17:02:15.400Z,1.00
2018-07-08T17:04:43.479Z,1.00
2018-07-08T17:07:12.645Z,1.00
2018-07-08T17:09:40.873Z,1.00
2018-07-08T17:12:08.994Z,1.00
2018-07-08T17:14:37.246Z,1.00
2018-07-08T17:17:06.008Z,1.00
2018-07-08T17:19:34.609Z,1.00
2018-07-08T17:22:02.699Z,1.00
2018-07-08T17:24:30.803Z,1.00
2018-07-08T17:26:58.916Z,1.00
2018-07-08T17:29:27.021Z,1.00
2018-07-08T17:31:55.142Z,1.00
2018-07-08T17:34:23.355Z,1.00
2018-07-08T17:36:51.530Z,1.00
2018-07-08T17:39:19.590Z,1.00
2018-07-08T17:41:47.853Z,1.00
2018-07-08T17:44:16.062Z,1.00
2018-07-08T17:46:44.305Z,1.00
2018-07-08T17:49:13.814Z,1.00
2018-07-08T17:51:42.624Z,1.00
2018-07-08T17:54:10.715Z,1.00
2018-07-08T17:56:38.959Z,1.00
2018-07-08T17:59:07.602Z,1.00
2018-07-08T18:01:36.451Z,1.00
2018-07-08T18:04:04.594Z,1.00
2018-07-08T18:06:32.790Z,1.00
2018-07-08T18:09:01.057Z,1.00
2018-07-08T18:11:29.227Z,1.00
2018-07-08T18:13:57.347Z,1.00
2018-07-08T18:16:25.478Z,1.00
2018-07-08T18:18:53.646Z,1.00
2018-07-08T18:21:22.195Z,1.00
2018-07-08T18:23:50.731Z,1.00
2018-07-08T18:26:19.066Z,1.00
2018-07-08T18:28:47.241Z,1.00
2018-07-08T18:31:15.341Z,1.00
2018-07-08T18:33:43.611Z,1.00
2018-07-08T18:36:13.622Z,1.00
2018-07-08T18:38:42.576Z,1.00
2018-07-08T18:43:38.929Z,1.00
2018-07-08T18:46:07.731Z,1.00
2018-07-08T18:48:35.836Z,1.00
2018-07-08T18:51:03.973Z,1.00
2018-07-08T18:53:32.105Z,1.00
2018-07-08T18:56:00.274Z,1.00
2018-07-08T18:58:28.429Z,1.00
2018-07-08T19:00:56.548Z,1.00
2018-07-08T19:03:24.776Z,1.00
2018-07-08T19:05:53.190Z,1.00
2018-07-08T19:08:21.563Z,1.00
2018-07-08T19:10:49.844Z,1.00
2018-07-08T19:13:18.700Z,1.00
2018-07-08T19:15:46.790Z,1.00
2018-07-08T19:18:14.938Z,1.00
2018-07-08T19:20:43.150Z,1.00
2018-07-08T19:23:11.285Z,1.00
2018-07-08T19:25:41.000Z,1.00
2018-07-08T19:28:09.240Z,1.00
2018-07-08T19:30:37.654Z,1.00
2018-07-08T19:33:05.832Z,1.00
2018-07-08T19:35:33.986Z,1.00
2018-07-08T19:38:02.432Z,1.00
2018-07-08T19:40:30.857Z,2.10
2018-07-08T19:42:59.005Z,1.00
2018-07-08T19:45:27.285Z,1.40
2018-07-08T19:47:55.599Z,1.30
2018-07-08T19:50:23.769Z,1.00
2018-07-08T19:52:51.941Z,1.00
2018-07-08T19:55:20.071Z,1.00
2018-07-08T19:57:48.215Z,1.00
2018-07-08T20:00:16.466Z,1.00
2018-07-08T20:02:44.738Z,1.00
2018-07-08T20:05:13.099Z,1.10
2018-07-08T20:07:41.479Z,1.20
2018-07-08T20:12:39.670Z,1.00
2018-07-08T20:17:36.062Z,1.00
2018-07-08T20:20:04.225Z,1.00
2018-07-08T20:22:32.325Z,1.00
2018-07-08T20:25:00.665Z,1.00
2018-07-08T20:27:28.831Z,2.60
2018-07-08T20:29:57.430Z,1.00
2018-07-08T20:32:26.031Z,1.00
2018-07-08T20:34:54.053Z,1.20
2018-07-08T20:37:22.194Z,1.10
2018-07-08T20:39:50.311Z,1.20
2018-07-08T20:42:18.605Z,1.00
2018-07-08T20:44:46.878Z,1.00
2018-07-08T20:47:15.138Z,1.00
2018-07-08T20:49:43.501Z,1.00
2018-07-08T20:52:11.753Z,1.80
2018-07-08T20:54:40.972Z,1.20
2018-07-08T20:57:09.105Z,1.60
2018-07-08T20:59:37.204Z,1.60
2018-07-08T21:02:05.377Z,1.70
2018-07-08T21:04:33.522Z,1.10
2018-07-08T21:07:01.721Z,1.00
2018-07-08T21:09:30.157Z,2.30
2018-07-08T21:11:58.326Z,1.00
2018-07-08T21:14:26.445Z,1.40
2018-07-08T21:16:54.565Z,1.30
2018-07-08T21:19:22.827Z,1.30
2018-07-08T21:21:51.012Z,1.20
2018-07-08T21:24:19.258Z,2.40
2018-07-08T21:26:47.401Z,2.40
2018-07-08T21:29:15.725Z,1.90
2018-07-08T21:31:44.098Z,1.20
2018-07-08T21:34:12.222Z,2.00
2018-07-08T21:36:40.314Z,1.10
2018-07-08T21:39:10.941Z,2.40
2018-07-08T21:41:39.785Z,4.40
2018-07-08T21:44:08.149Z,1.50
2018-07-08T21:46:36.525Z,1.80
2018-07-08T21:49:04.681Z,3.60
2018-07-08T21:51:32.902Z,3.10
2018-07-08T21:54:01.919Z,1.50
2018-07-08T21:56:30.084Z,1.50
2018-07-08T21:58:58.186Z,3.60
2018-07-08T22:01:28.123Z,3.60
2018-07-08T22:03:56.226Z,4.00
2018-07-08T22:06:24.390Z,5.00
2018-07-08T22:08:52.545Z,5.40
2018-07-08T22:11:20.816Z,4.20
2018-07-08T22:13:48.936Z,6.10
2018-07-08T22:16:17.577Z,3.30
2018-07-08T22:18:45.774Z,4.50
2018-07-08T22:21:13.890Z,4.70
2018-07-08T22:23:41.994Z,3.20
2018-07-08T22:26:10.266Z,3.70
2018-07-08T22:28:38.460Z,3.50
2018-07-08T22:31:06.624Z,3.50
2018-07-08T22:33:34.692Z,3.20
2018-07-08T22:36:02.829Z,5.90
2018-07-08T22:40:58.922Z,4.20
2018-07-08T22:43:27.684Z,3.70
2018-07-08T22:45:56.129Z,4.60
2018-07-08T22:48:24.551Z,5.20
2018-07-08T22:50:52.695Z,4.20
2018-07-08T22:53:20.962Z,4.50
2018-07-08T22:55:49.167Z,3.90
2018-07-08T22:58:17.442Z,5.40
2018-07-08T23:00:56.803Z,5.00
2018-07-08T23:04:02.443Z,5.50
2018-07-08T23:06:30.737Z,5.20
2018-07-08T23:08:58.896Z,5.30
2018-07-08T23:11:27.637Z,4.80
2018-07-08T23:13:56.734Z,4.20
2018-07-08T23:16:25.431Z,4.80
2018-07-08T23:18:53.738Z,6.20
2018-07-08T23:21:21.825Z,5.80
2018-07-08T23:23:49.972Z,5.70
2018-07-08T23:26:18.151Z,5.10
2018-07-08T23:28:46.324Z,6.60
2018-07-08T23:31:14.623Z,6.10
2018-07-08T23:33:42.737Z,6.00
2018-07-08T23:36:11.381Z,5.00
2018-07-08T23:38:39.527Z,5.40
2018-07-08T23:41:08.852Z,7.60
2018-07-08T23:43:37.004Z,7.70
2018-07-08T23:46:05.854Z,6.80
2018-07-08T23:48:34.274Z,6.80
2018-07-08T23:51:02.370Z,6.30
2018-07-08T23:53:30.910Z,6.40
2018-07-08T23:55:59.122Z,6.50
2018-07-08T23:58:27.777Z,6.40
